sensor_id;sensor_type;location;lat;lon;timestamp;temperature;humidity
22202;DHT22;11266;51.522;6.302;2023-12-28T12:06:32;11.50;99.90
22202;DHT22;11266;51.522;6.302;2023-12-28T12:07:18;11.40;99.90
22202;DHT22;11266;51.522;6.302;2023-12-28T12:08:04;11.40;99.90
22202;DHT22;11266;51.522;6.302;2023-12-28T12:08:50;11.40;99.90
22202;DHT22;11266;51.522;6.302;2023-12-28T12:09:36;11.40;99.90
22202;DHT22;11266;51.522;6.302;2023-12-28T12:10:21;11.40;99.90
22202;DHT22;11266;51.522;6.302;2023-12-28T12:11:07;11.40;99.90
22202;DHT22;11266;51.522;6.302;2023-12-28T12:11:53;11.40;99.90
22202;DHT22;11266;51.522;6.302;2023-12-28T12:12:39;11.40;99.90
22202;DHT22;11266;51.522;6.302;2023-12-28T12:13:24;11.40;99.90
22202;DHT22;11266;51.522;6.302;2023-12-28T12:14:11;11.40;99.90
22202;DHT22;11266;51.522;6.302;2023-12-28T12:14:57;11.40;99.90
22202;DHT22;11266;51.522;6.302;2023-12-28T12:15:43;11.40;99.90
22202;DHT22;11266;51.522;6.302;2023-12-28T12:16:29;11.40;99.90
22202;DHT22;11266;51.522;6.302;2023-12-28T12:17:14;11.40;99.90
22202;DHT22;11266;51.522;6.302;2023-12-28T12:18:01;11.40;99.90
22202;DHT22;11266;51.522;6.302;2023-12-28T12:18:46;11.40;99.90
22202;DHT22;11266;51.522;6.302;2023-12-28T12:19:33;11.40;99.90
22202;DHT22;11266;51.522;6.302;2023-12-28T12:20:20;11.40;99.90
22202;DHT22;11266;51.522;6.302;2023-12-28T12:21:06;11.50;99.90
22202;DHT22;11266;51.522;6.302;2023-12-28T12:21:52;11.50;99.90
22202;DHT22;11266;51.522;6.302;2023-12-28T12:22:38;11.50;99.90
22202;DHT22;11266;51.522;6.302;2023-12-28T12:23:25;11.40;99.90
22202;DHT22;11266;51.522;6.302;2023-12-28T12:24:10;11.40;99.90
22202;DHT22;11266;51.522;6.302;2023-12-28T12:24:58;11.50;99.90
22202;DHT22;11266;51.522;6.302;2023-12-28T12:25:45;11.40;99.90
22202;DHT22;11266;51.522;6.302;2023-12-28T12:26:31;11.50;99.90
22202;DHT22;11266;51.522;6.302;2023-12-28T12:27:17;11.40;99.90
22202;DHT22;11266;51.522;6.302;2023-12-28T12:28:03;11.50;99.90
22202;DHT22;11266;51.522;6.302;2023-12-28T12:28:49;11.40;99.90
22202;DHT22;11266;51.522;6.302;2023-12-28T12:29:34;11.40;99.90
22202;DHT22;11266;51.522;6.302;2023-12-28T12:30:21;11.40;99.90
22202;DHT22;11266;51.522;6.302;2023-12-28T12:31:07;11.40;99.90
22202;DHT22;11266;51.522;6.302;2023-12-28T12:31:53;11.50;99.90
22202;DHT22;11266;51.522;6.302;2023-12-28T12:32:39;11.50;99.90
22202;DHT22;11266;51.522;6.302;2023-12-28T12:33:28;11.50;99.90
22202;DHT22;11266;51.522;6.302;2023-12-28T12:34:17;11.40;99.90
22202;DHT22;11266;51.522;6.302;2023-12-28T12:35:02;11.50;99.90
22202;DHT22;11266;51.522;6.302;2023-12-28T12:35:49;11.40;99.90
22202;DHT22;11266;51.522;6.302;2023-12-28T12:36:35;11.40;99.90
22202;DHT22;11266;51.522;6.302;2023-12-28T12:37:21;11.40;99.90
22202;DHT22;11266;51.522;6.302;2023-12-28T12:38:06;11.40;99.90
22202;DHT22;11266;51.522;6.302;2023-12-28T12:38:52;11.50;99.90
22202;DHT22;11266;51.522;6.302;2023-12-28T12:39:38;11.50;99.90
22202;DHT22;11266;51.522;6.302;2023-12-28T12:40:24;11.50;99.90
22202;DHT22;11266;51.522;6.302;2023-12-28T12:41:10;11.50;99.90
22202;DHT22;11266;51.522;6.302;2023-12-28T12:42:04;11.50;99.90
22202;DHT22;11266;51.522;6.302;2023-12-28T12:42:53;11.50;99.90
22202;DHT22;11266;51.522;6.302;2023-12-28T12:43:40;11.50;99.90
22202;DHT22;11266;51.522;6.302;2023-12-28T12:44:26;11.50;99.90
22202;DHT22;11266;51.522;6.302;2023-12-28T12:45:13;11.50;99.90
22202;DHT22;11266;51.522;6.302;2023-12-28T12:45:58;11.40;99.90
22202;DHT22;11266;51.522;6.302;2023-12-28T12:46:45;11.50;99.90
22202;DHT22;11266;51.522;6.302;2023-12-28T12:47:34;11.50;99.90
22202;DHT22;11266;51.522;6.302;2023-12-28T12:48:22;11.40;99.90
22202;DHT22;11266;51.522;6.302;2023-12-28T12:49:08;11.40;99.90
22202;DHT22;11266;51.522;6.302;2023-12-28T12:49:58;11.50;99.90
22202;DHT22;11266;51.522;6.302;2023-12-28T12:50:44;11.50;99.90
22202;DHT22;11266;51.522;6.302;2023-12-28T12:51:30;11.50;99.90
22202;DHT22;11266;51.522;6.302;2023-12-28T12:52:16;11.50;99.90
22202;DHT22;11266;51.522;6.302;2023-12-28T12:53:05;11.50;99.90
22202;DHT22;11266;51.522;6.302;2023-12-28T12:53:55;11.50;99.90
22202;DHT22;11266;51.522;6.302;2023-12-28T12:54:41;11.50;99.90
22202;DHT22;11266;51.522;6.302;2023-12-28T12:55:26;11.50;99.90
22202;DHT22;11266;51.522;6.302;2023-12-28T12:56:12;11.50;99.90
22202;DHT22;11266;51.522;6.302;2023-12-28T12:56:58;11.50;99.90
22202;DHT22;11266;51.522;6.302;2023-12-28T12:57:45;11.40;99.90
22202;DHT22;11266;51.522;6.302;2023-12-28T12:58:31;11.50;99.90
22202;DHT22;11266;51.522;6.302;2023-12-28T12:59:17;11.50;99.90
22202;DHT22;11266;51.522;6.302;2023-12-28T13:00:04;11.50;99.90
22202;DHT22;11266;51.522;6.302;2023-12-28T13:00:53;11.50;99.90
22202;DHT22;11266;51.522;6.302;2023-12-28T13:01:39;11.50;99.90
22202;DHT22;11266;51.522;6.302;2023-12-28T13:02:34;11.50;99.90
22202;DHT22;11266;51.522;6.302;2023-12-28T13:03:21;11.50;99.90
22202;DHT22;11266;51.522;6.302;2023-12-28T13:04:07;11.50;99.90
22202;DHT22;11266;51.522;6.302;2023-12-28T13:04:55;11.40;99.90
22202;DHT22;11266;51.522;6.302;2023-12-28T13:05:41;11.40;99.90
22202;DHT22;11266;51.522;6.302;2023-12-28T13:06:29;11.40;99.90
22202;DHT22;11266;51.522;6.302;2023-12-28T13:07:15;11.50;99.90
22202;DHT22;11266;51.522;6.302;2023-12-28T13:08:01;11.50;99.90
22202;DHT22;11266;51.522;6.302;2023-12-28T13:08:47;11.50;99.90
22202;DHT22;11266;51.522;6.302;2023-12-28T13:09:32;11.50;99.90
22202;DHT22;11266;51.522;6.302;2023-12-28T13:10:18;11.50;99.90
22202;DHT22;11266;51.522;6.302;2023-12-28T13:11:04;11.60;99.90
22202;DHT22;11266;51.522;6.302;2023-12-28T13:11:52;11.60;99.90
22202;DHT22;11266;51.522;6.302;2023-12-28T13:12:38;11.60;99.90
22202;DHT22;11266;51.522;6.302;2023-12-28T13:13:24;11.50;99.90
22202;DHT22;11266;51.522;6.302;2023-12-28T13:14:09;11.50;99.90
22202;DHT22;11266;51.522;6.302;2023-12-28T13:14:55;11.50;99.90
22202;DHT22;11266;51.522;6.302;2023-12-28T13:15:41;11.50;99.90
22202;DHT22;11266;51.522;6.302;2023-12-28T13:16:27;11.40;99.90
22202;DHT22;11266;51.522;6.302;2023-12-28T13:17:13;11.40;99.90
22202;DHT22;11266;51.522;6.302;2023-12-28T13:17:58;11.50;99.90
22202;DHT22;11266;51.522;6.302;2023-12-28T13:18:45;11.40;99.90
22202;DHT22;11266;51.522;6.302;2023-12-28T13:19:30;11.40;99.90
22202;DHT22;11266;51.522;6.302;2023-12-28T13:20:16;11.40;99.90
22202;DHT22;11266;51.522;6.302;2023-12-28T13:21:02;11.50;99.90
22202;DHT22;11266;51.522;6.302;2023-12-28T13:21:48;11.50;99.90
22202;DHT22;11266;51.522;6.302;2023-12-28T13:22:34;11.50;99.90
22202;DHT22;11266;51.522;6.302;2023-12-28T13:23:20;11.50;99.90
22202;DHT22;11266;51.522;6.302;2023-12-28T13:24:06;11.40;99.90
22202;DHT22;11266;51.522;6.302;2023-12-28T13:24:52;11.40;99.90
22202;DHT22;11266;51.522;6.302;2023-12-28T13:25:37;11.50;99.90
22202;DHT22;11266;51.522;6.302;2023-12-28T13:26:23;11.60;99.90
22202;DHT22;11266;51.522;6.302;2023-12-28T13:27:08;11.50;99.90
22202;DHT22;11266;51.522;6.302;2023-12-28T13:27:55;11.50;99.90
22202;DHT22;11266;51.522;6.302;2023-12-28T13:28:41;11.50;99.90
22202;DHT22;11266;51.522;6.302;2023-12-28T13:29:28;11.50;99.90
22202;DHT22;11266;51.522;6.302;2023-12-28T13:30:15;11.50;99.90
22202;DHT22;11266;51.522;6.302;2023-12-28T13:31:01;11.50;99.90
22202;DHT22;11266;51.522;6.302;2023-12-28T13:31:47;11.50;99.90
22202;DHT22;11266;51.522;6.302;2023-12-28T13:32:35;11.40;99.90
22202;DHT22;11266;51.522;6.302;2023-12-28T13:33:21;11.40;99.90
22202;DHT22;11266;51.522;6.302;2023-12-28T13:34:07;11.40;99.90
22202;DHT22;11266;51.522;6.302;2023-12-28T13:34:53;11.40;99.90
22202;DHT22;11266;51.522;6.302;2023-12-28T13:35:39;11.50;99.90
22202;DHT22;11266;51.522;6.302;2023-12-28T13:36:24;11.50;99.90
22202;DHT22;11266;51.522;6.302;2023-12-28T13:37:12;11.50;99.90
22202;DHT22;11266;51.522;6.302;2023-12-28T13:37:58;11.50;99.90
22202;DHT22;11266;51.522;6.302;2023-12-28T13:38:43;11.40;99.90
22202;DHT22;11266;51.522;6.302;2023-12-28T13:39:29;11.50;99.90
22202;DHT22;11266;51.522;6.302;2023-12-28T13:40:15;11.50;99.90
22202;DHT22;11266;51.522;6.302;2023-12-28T13:41:01;11.50;99.90
22202;DHT22;11266;51.522;6.302;2023-12-28T13:41:46;11.50;99.90
22202;DHT22;11266;51.522;6.302;2023-12-28T13:42:32;11.50;99.90
22202;DHT22;11266;51.522;6.302;2023-12-28T13:43:18;11.40;99.90
22202;DHT22;11266;51.522;6.302;2023-12-28T13:44:03;11.50;99.90
22202;DHT22;11266;51.522;6.302;2023-12-28T13:44:52;11.40;99.90
22202;DHT22;11266;51.522;6.302;2023-12-28T13:45:38;11.40;99.90
22202;DHT22;11266;51.522;6.302;2023-12-28T13:46:23;11.50;99.90
22202;DHT22;11266;51.522;6.302;2023-12-28T13:47:09;11.40;99.90
22202;DHT22;11266;51.522;6.302;2023-12-28T13:47:55;11.40;99.90
22202;DHT22;11266;51.522;6.302;2023-12-28T13:48:41;11.50;99.90
22202;DHT22;11266;51.522;6.302;2023-12-28T13:49:28;11.50;99.90
22202;DHT22;11266;51.522;6.302;2023-12-28T13:50:13;11.40;99.90
22202;DHT22;11266;51.522;6.302;2023-12-28T13:50:59;11.40;99.90
22202;DHT22;11266;51.522;6.302;2023-12-28T13:51:45;11.50;99.90
22202;DHT22;11266;51.522;6.302;2023-12-28T13:52:31;11.40;99.90
22202;DHT22;11266;51.522;6.302;2023-12-28T13:53:17;11.40;99.90
22202;DHT22;11266;51.522;6.302;2023-12-28T13:54:03;11.40;99.90
22202;DHT22;11266;51.522;6.302;2023-12-28T13:54:48;11.40;99.90
22202;DHT22;11266;51.522;6.302;2023-12-28T13:55:34;11.50;99.90
22202;DHT22;11266;51.522;6.302;2023-12-28T13:56:20;11.40;99.90
22202;DHT22;11266;51.522;6.302;2023-12-28T13:57:06;11.40;99.90
22202;DHT22;11266;51.522;6.302;2023-12-28T13:57:57;11.50;99.90
22202;DHT22;11266;51.522;6.302;2023-12-28T13:58:43;11.50;99.90
22202;DHT22;11266;51.522;6.302;2023-12-28T13:59:30;11.50;99.90
22202;DHT22;11266;51.522;6.302;2023-12-28T14:00:15;11.50;99.90
22202;DHT22;11266;51.522;6.302;2023-12-28T14:01:05;11.40;99.90
22202;DHT22;11266;51.522;6.302;2023-12-28T14:01:50;11.40;99.90
22202;DHT22;11266;51.522;6.302;2023-12-28T14:02:36;11.40;99.90
22202;DHT22;11266;51.522;6.302;2023-12-28T14:03:22;11.40;99.90
22202;DHT22;11266;51.522;6.302;2023-12-28T14:04:07;11.40;99.90
22202;DHT22;11266;51.522;6.302;2023-12-28T14:04:54;11.40;99.90
22202;DHT22;11266;51.522;6.302;2023-12-28T14:05:41;11.40;99.90
22202;DHT22;11266;51.522;6.302;2023-12-28T14:06:27;11.40;99.90
22202;DHT22;11266;51.522;6.302;2023-12-28T14:07:13;11.40;99.90
22202;DHT22;11266;51.522;6.302;2023-12-28T14:08:02;11.40;99.90
22202;DHT22;11266;51.522;6.302;2023-12-28T14:08:51;11.40;99.90
22202;DHT22;11266;51.522;6.302;2023-12-28T14:09:36;11.40;99.90
22202;DHT22;11266;51.522;6.302;2023-12-28T14:10:22;11.30;99.90
22202;DHT22;11266;51.522;6.302;2023-12-28T14:11:08;11.40;99.90
22202;DHT22;11266;51.522;6.302;2023-12-28T14:11:55;11.40;99.90
22202;DHT22;11266;51.522;6.302;2023-12-28T14:12:40;11.40;99.90
22202;DHT22;11266;51.522;6.302;2023-12-28T14:13:26;11.40;99.90
22202;DHT22;11266;51.522;6.302;2023-12-28T14:14:12;11.50;99.90
22202;DHT22;11266;51.522;6.302;2023-12-28T14:14:58;11.50;99.90
22202;DHT22;11266;51.522;6.302;2023-12-28T14:15:44;11.40;99.90
22202;DHT22;11266;51.522;6.302;2023-12-28T14:16:29;11.40;99.90
22202;DHT22;11266;51.522;6.302;2023-12-28T14:17:15;11.30;99.90
22202;DHT22;11266;51.522;6.302;2023-12-28T14:18:05;11.30;99.90
22202;DHT22;11266;51.522;6.302;2023-12-28T14:18:51;11.40;99.90
22202;DHT22;11266;51.522;6.302;2023-12-28T14:19:37;11.40;99.90
22202;DHT22;11266;51.522;6.302;2023-12-28T14:20:23;11.30;99.90
22202;DHT22;11266;51.522;6.302;2023-12-28T14:21:09;11.40;99.90
22202;DHT22;11266;51.522;6.302;2023-12-28T14:21:55;11.40;99.90
22202;DHT22;11266;51.522;6.302;2023-12-28T14:22:41;11.50;99.90
22202;DHT22;11266;51.522;6.302;2023-12-28T14:23:27;11.40;99.90
22202;DHT22;11266;51.522;6.302;2023-12-28T14:24:13;11.50;99.90
22202;DHT22;11266;51.522;6.302;2023-12-28T14:24:59;11.50;99.90
22202;DHT22;11266;51.522;6.302;2023-12-28T14:25:45;11.40;99.90
22202;DHT22;11266;51.522;6.302;2023-12-28T14:26:41;11.50;99.90
22202;DHT22;11266;51.522;6.302;2023-12-28T14:27:30;11.40;99.90
22202;DHT22;11266;51.522;6.302;2023-12-28T14:28:16;11.40;99.90
22202;DHT22;11266;51.522;6.302;2023-12-28T14:29:02;11.30;99.90
22202;DHT22;11266;51.522;6.302;2023-12-28T14:29:51;11.30;99.90
22202;DHT22;11266;51.522;6.302;2023-12-28T14:30:37;11.40;99.90
22202;DHT22;11266;51.522;6.302;2023-12-28T14:31:22;11.40;99.90
22202;DHT22;11266;51.522;6.302;2023-12-28T14:32:09;11.30;99.90
22202;DHT22;11266;51.522;6.302;2023-12-28T14:32:55;11.30;99.90
22202;DHT22;11266;51.522;6.302;2023-12-28T14:33:41;11.30;99.90
22202;DHT22;11266;51.522;6.302;2023-12-28T14:34:27;11.30;99.90
22202;DHT22;11266;51.522;6.302;2023-12-28T14:35:19;11.30;99.90
22202;DHT22;11266;51.522;6.302;2023-12-28T14:36:27;11.30;99.90
22202;DHT22;11266;51.522;6.302;2023-12-28T14:37:15;11.20;99.90
22202;DHT22;11266;51.522;6.302;2023-12-28T14:38:03;11.30;99.90
22202;DHT22;11266;51.522;6.302;2023-12-28T14:38:49;11.20;99.90
22202;DHT22;11266;51.522;6.302;2023-12-28T14:39:34;11.20;99.90
22202;DHT22;11266;51.522;6.302;2023-12-28T14:40:20;11.30;99.90
22202;DHT22;11266;51.522;6.302;2023-12-28T14:41:06;11.30;99.90
22202;DHT22;11266;51.522;6.302;2023-12-28T14:41:51;11.30;99.90
22202;DHT22;11266;51.522;6.302;2023-12-28T14:42:40;11.30;99.90
22202;DHT22;11266;51.522;6.302;2023-12-28T14:43:25;11.30;99.90
22202;DHT22;11266;51.522;6.302;2023-12-28T14:44:14;11.30;99.90
22202;DHT22;11266;51.522;6.302;2023-12-28T14:45:00;11.20;99.90
22202;DHT22;11266;51.522;6.302;2023-12-28T14:45:46;11.20;99.90
22202;DHT22;11266;51.522;6.302;2023-12-28T14:46:33;11.20;99.90
22202;DHT22;11266;51.522;6.302;2023-12-28T14:47:18;11.20;99.90
22202;DHT22;11266;51.522;6.302;2023-12-28T14:48:04;11.10;99.90
22202;DHT22;11266;51.522;6.302;2023-12-28T14:48:50;11.10;99.90
22202;DHT22;11266;51.522;6.302;2023-12-28T14:49:36;11.10;99.90
22202;DHT22;11266;51.522;6.302;2023-12-28T14:50:21;11.10;99.90
22202;DHT22;11266;51.522;6.302;2023-12-28T14:51:07;11.10;99.90
22202;DHT22;11266;51.522;6.302;2023-12-28T14:51:52;11.10;99.90
22202;DHT22;11266;51.522;6.302;2023-12-28T14:52:38;11.10;99.90
22202;DHT22;11266;51.522;6.302;2023-12-28T14:53:27;11.20;99.90
22202;DHT22;11266;51.522;6.302;2023-12-28T14:54:13;11.10;99.90
22202;DHT22;11266;51.522;6.302;2023-12-28T14:54:59;11.10;99.90
22202;DHT22;11266;51.522;6.302;2023-12-28T14:55:44;11.10;99.90
22202;DHT22;11266;51.522;6.302;2023-12-28T14:56:30;11.10;99.90
22202;DHT22;11266;51.522;6.302;2023-12-28T14:57:16;11.10;99.90
22202;DHT22;11266;51.522;6.302;2023-12-28T14:58:02;11.10;99.90
22202;DHT22;11266;51.522;6.302;2023-12-28T14:58:48;11.10;99.90
22202;DHT22;11266;51.522;6.302;2023-12-28T14:59:33;11.10;99.90
22202;DHT22;11266;51.522;6.302;2023-12-28T15:00:19;11.10;99.90
22202;DHT22;11266;51.522;6.302;2023-12-28T15:01:05;11.10;99.90
22202;DHT22;11266;51.522;6.302;2023-12-28T15:01:51;11.00;99.90
22202;DHT22;11266;51.522;6.302;2023-12-28T15:02:37;11.00;99.90
22202;DHT22;11266;51.522;6.302;2023-12-28T15:03:22;11.10;99.90
22202;DHT22;11266;51.522;6.302;2023-12-28T15:04:08;11.00;99.90
22202;DHT22;11266;51.522;6.302;2023-12-28T15:04:54;11.00;99.90
22202;DHT22;11266;51.522;6.302;2023-12-28T15:05:41;11.10;99.90
22202;DHT22;11266;51.522;6.302;2023-12-28T15:06:27;11.00;99.90
22202;DHT22;11266;51.522;6.302;2023-12-28T15:07:13;11.00;99.90
22202;DHT22;11266;51.522;6.302;2023-12-28T15:07:58;11.00;99.90
22202;DHT22;11266;51.522;6.302;2023-12-28T15:08:44;11.00;99.90
22202;DHT22;11266;51.522;6.302;2023-12-28T15:09:30;10.90;99.90
22202;DHT22;11266;51.522;6.302;2023-12-28T15:10:16;10.90;99.90
22202;DHT22;11266;51.522;6.302;2023-12-28T15:11:03;11.00;99.90
22202;DHT22;11266;51.522;6.302;2023-12-28T15:11:49;10.90;99.90
22202;DHT22;11266;51.522;6.302;2023-12-28T15:12:38;11.00;99.90
22202;DHT22;11266;51.522;6.302;2023-12-28T15:13:23;11.00;99.90
22202;DHT22;11266;51.522;6.302;2023-12-28T15:14:09;11.00;99.90
22202;DHT22;11266;51.522;6.302;2023-12-28T15:14:55;11.10;99.90
22202;DHT22;11266;51.522;6.302;2023-12-28T15:15:41;11.00;99.90
22202;DHT22;11266;51.522;6.302;2023-12-28T15:16:27;11.10;99.90
22202;DHT22;11266;51.522;6.302;2023-12-28T15:17:13;11.10;99.90
22202;DHT22;11266;51.522;6.302;2023-12-28T15:17:59;11.00;99.90
22202;DHT22;11266;51.522;6.302;2023-12-28T15:18:45;11.00;99.90
22202;DHT22;11266;51.522;6.302;2023-12-28T15:19:31;11.00;99.90
22202;DHT22;11266;51.522;6.302;2023-12-28T15:20:17;11.00;99.90
22202;DHT22;11266;51.522;6.302;2023-12-28T15:21:03;10.90;99.90
22202;DHT22;11266;51.522;6.302;2023-12-28T15:21:49;10.90;99.90
22202;DHT22;11266;51.522;6.302;2023-12-28T15:22:35;10.90;99.90
22202;DHT22;11266;51.522;6.302;2023-12-28T15:23:20;10.90;99.90
22202;DHT22;11266;51.522;6.302;2023-12-28T15:24:08;10.90;99.90
22202;DHT22;11266;51.522;6.302;2023-12-28T15:24:53;10.90;99.90
22202;DHT22;11266;51.522;6.302;2023-12-28T15:25:42;10.80;99.90
22202;DHT22;11266;51.522;6.302;2023-12-28T15:26:28;10.80;99.90
22202;DHT22;11266;51.522;6.302;2023-12-28T15:27:13;10.80;99.90
22202;DHT22;11266;51.522;6.302;2023-12-28T15:27:59;10.80;99.90
22202;DHT22;11266;51.522;6.302;2023-12-28T15:28:47;10.80;99.90
22202;DHT22;11266;51.522;6.302;2023-12-28T15:29:36;10.90;99.90
22202;DHT22;11266;51.522;6.302;2023-12-28T15:30:22;10.90;99.90
22202;DHT22;11266;51.522;6.302;2023-12-28T15:31:08;10.90;99.90
22202;DHT22;11266;51.522;6.302;2023-12-28T15:31:54;10.90;99.90
22202;DHT22;11266;51.522;6.302;2023-12-28T15:32:40;10.90;99.90
22202;DHT22;11266;51.522;6.302;2023-12-28T15:33:27;10.90;99.90
22202;DHT22;11266;51.522;6.302;2023-12-28T15:34:12;10.80;99.90
22202;DHT22;11266;51.522;6.302;2023-12-28T15:34:58;10.80;99.90
22202;DHT22;11266;51.522;6.302;2023-12-28T15:35:44;10.90;99.90
22202;DHT22;11266;51.522;6.302;2023-12-28T15:36:30;10.90;99.90
22202;DHT22;11266;51.522;6.302;2023-12-28T15:37:16;10.90;99.90
22202;DHT22;11266;51.522;6.302;2023-12-28T15:38:01;10.80;99.90
22202;DHT22;11266;51.522;6.302;2023-12-28T15:38:48;10.90;99.90
22202;DHT22;11266;51.522;6.302;2023-12-28T15:39:33;10.80;99.90
22202;DHT22;11266;51.522;6.302;2023-12-28T15:40:19;10.90;99.90
22202;DHT22;11266;51.522;6.302;2023-12-28T15:41:05;10.80;99.90
22202;DHT22;11266;51.522;6.302;2023-12-28T15:41:50;10.80;99.90
22202;DHT22;11266;51.522;6.302;2023-12-28T15:42:36;10.90;99.90
22202;DHT22;11266;51.522;6.302;2023-12-28T15:43:22;10.90;99.90
22202;DHT22;11266;51.522;6.302;2023-12-28T15:44:08;10.80;99.90
22202;DHT22;11266;51.522;6.302;2023-12-28T15:44:53;10.80;99.90
22202;DHT22;11266;51.522;6.302;2023-12-28T15:45:39;10.80;99.90
22202;DHT22;11266;51.522;6.302;2023-12-28T15:46:24;10.80;99.90
22202;DHT22;11266;51.522;6.302;2023-12-28T15:47:10;10.80;99.90
22202;DHT22;11266;51.522;6.302;2023-12-28T15:47:56;10.70;99.90
22202;DHT22;11266;51.522;6.302;2023-12-28T15:48:41;10.80;99.90
22202;DHT22;11266;51.522;6.302;2023-12-28T15:49:30;10.70;99.90
22202;DHT22;11266;51.522;6.302;2023-12-28T15:50:15;10.80;99.90
22202;DHT22;11266;51.522;6.302;2023-12-28T15:51:01;10.80;99.90
22202;DHT22;11266;51.522;6.302;2023-12-28T15:51:47;10.70;99.90
22202;DHT22;11266;51.522;6.302;2023-12-28T15:52:32;10.70;99.90
22202;DHT22;11266;51.522;6.302;2023-12-28T15:53:18;10.70;99.90
22202;DHT22;11266;51.522;6.302;2023-12-28T15:54:04;10.70;99.90
22202;DHT22;11266;51.522;6.302;2023-12-28T15:54:50;10.70;99.90
22202;DHT22;11266;51.522;6.302;2023-12-28T15:55:36;10.80;99.90
22202;DHT22;11266;51.522;6.302;2023-12-28T15:56:21;10.80;99.90
22202;DHT22;11266;51.522;6.302;2023-12-28T15:57:07;10.80;99.90
22202;DHT22;11266;51.522;6.302;2023-12-28T15:57:54;10.80;99.90
22202;DHT22;11266;51.522;6.302;2023-12-28T15:58:39;10.70;99.90
22202;DHT22;11266;51.522;6.302;2023-12-28T15:59:29;10.80;99.90
22202;DHT22;11266;51.522;6.302;2023-12-28T16:00:15;10.70;99.90
22202;DHT22;11266;51.522;6.302;2023-12-28T16:01:01;10.70;99.90
22202;DHT22;11266;51.522;6.302;2023-12-28T16:01:47;10.70;99.90
22202;DHT22;11266;51.522;6.302;2023-12-28T16:02:33;10.70;99.90
22202;DHT22;11266;51.522;6.302;2023-12-28T16:03:19;10.70;99.90
22202;DHT22;11266;51.522;6.302;2023-12-28T16:04:04;10.60;99.90
22202;DHT22;11266;51.522;6.302;2023-12-28T16:04:50;10.60;99.90
22202;DHT22;11266;51.522;6.302;2023-12-28T16:05:36;10.60;99.90
22202;DHT22;11266;51.522;6.302;2023-12-28T16:06:22;10.60;99.90
22202;DHT22;11266;51.522;6.302;2023-12-28T16:07:08;10.60;99.90
22202;DHT22;11266;51.522;6.302;2023-12-28T16:07:53;10.70;99.90
22202;DHT22;11266;51.522;6.302;2023-12-28T16:08:39;10.70;99.90
22202;DHT22;11266;51.522;6.302;2023-12-28T16:09:25;10.60;99.90
22202;DHT22;11266;51.522;6.302;2023-12-28T16:10:10;10.60;99.90
22202;DHT22;11266;51.522;6.302;2023-12-28T16:10:56;10.60;99.90
22202;DHT22;11266;51.522;6.302;2023-12-28T16:11:42;10.50;99.90
22202;DHT22;11266;51.522;6.302;2023-12-28T16:12:27;10.60;99.90
22202;DHT22;11266;51.522;6.302;2023-12-28T16:13:13;10.60;99.90
22202;DHT22;11266;51.522;6.302;2023-12-28T16:13:59;10.60;99.90
22202;DHT22;11266;51.522;6.302;2023-12-28T16:14:45;10.60;99.90
22202;DHT22;11266;51.522;6.302;2023-12-28T16:15:31;10.70;99.90
22202;DHT22;11266;51.522;6.302;2023-12-28T16:16:17;10.60;99.90
22202;DHT22;11266;51.522;6.302;2023-12-28T16:17:03;10.60;99.90
22202;DHT22;11266;51.522;6.302;2023-12-28T16:17:49;10.60;99.90
22202;DHT22;11266;51.522;6.302;2023-12-28T16:18:42;10.70;99.90
22202;DHT22;11266;51.522;6.302;2023-12-28T16:19:28;10.70;99.90
22202;DHT22;11266;51.522;6.302;2023-12-28T16:20:14;10.70;99.90
22202;DHT22;11266;51.522;6.302;2023-12-28T16:21:00;10.70;99.90
22202;DHT22;11266;51.522;6.302;2023-12-28T16:21:47;10.70;99.90
22202;DHT22;11266;51.522;6.302;2023-12-28T16:22:33;10.60;99.90
22202;DHT22;11266;51.522;6.302;2023-12-28T16:23:19;10.60;99.90
22202;DHT22;11266;51.522;6.302;2023-12-28T16:24:05;10.60;99.90
22202;DHT22;11266;51.522;6.302;2023-12-28T16:24:51;10.60;99.90
22202;DHT22;11266;51.522;6.302;2023-12-28T16:25:37;10.60;99.90
22202;DHT22;11266;51.522;6.302;2023-12-28T16:26:22;10.60;99.90
22202;DHT22;11266;51.522;6.302;2023-12-28T16:27:08;10.50;99.90
22202;DHT22;11266;51.522;6.302;2023-12-28T16:27:54;10.50;99.90
22202;DHT22;11266;51.522;6.302;2023-12-28T16:28:40;10.60;99.90
22202;DHT22;11266;51.522;6.302;2023-12-28T16:29:26;10.50;99.90
22202;DHT22;11266;51.522;6.302;2023-12-28T16:30:11;10.50;99.90
22202;DHT22;11266;51.522;6.302;2023-12-28T16:30:57;10.40;99.90
22202;DHT22;11266;51.522;6.302;2023-12-28T16:31:43;10.40;99.90
22202;DHT22;11266;51.522;6.302;2023-12-28T16:32:28;10.40;99.90
22202;DHT22;11266;51.522;6.302;2023-12-28T16:33:14;10.40;99.90
22202;DHT22;11266;51.522;6.302;2023-12-28T16:34:00;10.40;99.90
22202;DHT22;11266;51.522;6.302;2023-12-28T16:34:46;10.30;99.90
22202;DHT22;11266;51.522;6.302;2023-12-28T16:35:32;10.30;99.90
22202;DHT22;11266;51.522;6.302;2023-12-28T16:36:17;10.30;99.90
22202;DHT22;11266;51.522;6.302;2023-12-28T16:37:03;10.30;99.90
22202;DHT22;11266;51.522;6.302;2023-12-28T16:37:49;10.40;99.90
22202;DHT22;11266;51.522;6.302;2023-12-28T16:38:35;10.40;99.90
22202;DHT22;11266;51.522;6.302;2023-12-28T16:39:21;10.40;99.90
22202;DHT22;11266;51.522;6.302;2023-12-28T16:40:07;10.40;99.90
22202;DHT22;11266;51.522;6.302;2023-12-28T16:40:53;10.50;99.90
22202;DHT22;11266;51.522;6.302;2023-12-28T16:41:38;10.40;99.90
22202;DHT22;11266;51.522;6.302;2023-12-28T16:42:25;10.40;99.90
22202;DHT22;11266;51.522;6.302;2023-12-28T16:43:11;10.40;99.90
22202;DHT22;11266;51.522;6.302;2023-12-28T16:43:57;10.30;99.90
22202;DHT22;11266;51.522;6.302;2023-12-28T16:44:43;10.30;99.90
22202;DHT22;11266;51.522;6.302;2023-12-28T16:45:29;10.40;99.90
22202;DHT22;11266;51.522;6.302;2023-12-28T16:46:14;10.40;99.90
22202;DHT22;11266;51.522;6.302;2023-12-28T16:47:00;10.30;99.90
22202;DHT22;11266;51.522;6.302;2023-12-28T16:47:46;10.40;99.90
22202;DHT22;11266;51.522;6.302;2023-12-28T16:48:32;10.40;99.90
22202;DHT22;11266;51.522;6.302;2023-12-28T16:49:18;10.40;99.90
22202;DHT22;11266;51.522;6.302;2023-12-28T16:50:04;10.40;99.90
22202;DHT22;11266;51.522;6.302;2023-12-28T16:50:49;10.40;99.90
22202;DHT22;11266;51.522;6.302;2023-12-28T16:51:35;10.40;99.90
22202;DHT22;11266;51.522;6.302;2023-12-28T16:52:21;10.40;99.90
22202;DHT22;11266;51.522;6.302;2023-12-28T16:53:07;10.40;99.90
22202;DHT22;11266;51.522;6.302;2023-12-28T16:53:52;10.40;99.90
22202;DHT22;11266;51.522;6.302;2023-12-28T16:54:38;10.40;99.90
22202;DHT22;11266;51.522;6.302;2023-12-28T16:55:23;10.40;99.90
22202;DHT22;11266;51.522;6.302;2023-12-28T16:56:11;10.40;99.90
22202;DHT22;11266;51.522;6.302;2023-12-28T16:56:57;10.50;99.90
22202;DHT22;11266;51.522;6.302;2023-12-28T16:57:42;10.50;99.90
22202;DHT22;11266;51.522;6.302;2023-12-28T16:58:28;10.50;99.90